Aguas Blancas, Argentina
Current Conditions -  °F | °C
As of 4:00 AM on Thursday 18 Dec 2014 (Local Time) from SASJ Reporting Station
Clear Clear  
Wind Chill: 19°   Ceiling: Unl
Heat Index: 19°   Visibility: 6mi
Dew Point: 17°   Wind: 5mph
Humidity: 88%   Direction: 290°WNW
Pressure: 29.97"   Gusts: NA
Location:  23.05°S, 64.43°W
Report Text: SASJ 180700Z 29004KT 9000 NSC 19/17 Q1015
Loading
Personal Weather Stations






























Interactive Weather Map New forecast layout! Learn more

10-Day Weather Forecast

Advertisements
Track Severe Weather on mobile